Time;durP1;ratioP1;P1;durP2;ratioP2;P2;SDS_P1;SDS_P2;PMS_P1;PMS_P2;Temp;Humidity;BMP_temperature;BMP_pressure;BME280_temperature;BME280_humidity;BME280_pressure;Samples;Min_cycle;Max_cycle;Signal;HPM_P1;HPM_P2
2022/09/15 00:00:27;;;;;;;3.30;0.80;;;;;;;13.72;81.52;100834.88;5019788;28;20038;-44
2022/09/15 00:02:53;;;;;;;1.35;1.25;;;;;;;13.71;81.59;100831.31;5008355;28;20046;-44
2022/09/15 00:05:20;;;;;;;1.02;0.90;;;;;;;13.70;81.50;100828.88;5012652;28;20033;-44
2022/09/15 00:07:47;;;;;;;2.72;0.80;;;;;;;13.68;81.36;100826.47;5028526;28;20041;-44
2022/09/15 00:10:13;;;;;;;5.72;1.05;;;;;;;13.68;81.43;100823.69;5022394;28;20045;-44
2022/09/15 00:12:40;;;;;;;1.95;0.90;;;;;;;13.67;81.42;100822.06;4990004;28;20052;-52
2022/09/15 00:15:07;;;;;;;1.92;1.02;;;;;;;13.68;81.58;100828.44;5010995;28;20700;-45
2022/09/15 00:17:34;;;;;;;2.20;0.90;;;;;;;13.65;81.60;100829.97;5001094;28;20373;-44
2022/09/15 00:20:01;;;;;;;1.17;1.02;;;;;;;13.64;81.51;100833.91;5003918;28;20656;-49
2022/09/15 00:22:28;;;;;;;2.40;1.55;;;;;;;13.63;81.85;100837.06;5004614;28;20041;-44
2022/09/15 00:24:54;;;;;;;1.88;0.85;;;;;;;13.64;81.83;100841.44;5010111;28;20037;-44
2022/09/15 00:27:21;;;;;;;1.42;1.13;;;;;;;13.63;81.79;100832.31;5005855;28;20052;-44
2022/09/15 00:29:48;;;;;;;1.33;1.20;;;;;;;13.63;81.86;100826.75;5008112;28;20042;-45
2022/09/15 00:32:14;;;;;;;2.28;1.35;;;;;;;13.62;82.00;100830.69;5006250;28;20045;-47
2022/09/15 00:34:41;;;;;;;5.22;1.40;;;;;;;13.58;82.00;100829.78;5010684;28;20072;-44
2022/09/15 00:37:07;;;;;;;2.97;1.48;;;;;;;13.55;82.10;100836.09;5008259;28;20491;-45
2022/09/15 00:39:34;;;;;;;4.13;1.45;;;;;;;13.56;82.17;100832.13;5006636;28;20049;-49
2022/09/15 00:42:02;;;;;;;2.85;1.13;;;;;;;13.56;82.09;100829.34;4986144;28;20050;-45
2022/09/15 00:44:35;;;;;;;2.92;1.30;;;;;;;13.55;82.11;100833.31;5013802;28;20052;-47
2022/09/15 00:47:05;;;;;;;4.80;2.70;;;;;;;13.51;82.22;100831.59;5006637;28;20045;-44
2022/09/15 00:49:47;;;;;;;1.30;1.05;;;;;;;13.51;82.17;100828.81;5014098;28;20056;-45
2022/09/15 00:52:18;;;;;;;1.88;1.33;;;;;;;13.47;82.20;100834.31;5007808;28;20049;-50
2022/09/15 00:55:19;;;;;;;2.90;1.55;;;;;;;13.46;82.38;100831.88;5007799;28;20153;-50
2022/09/15 00:58:01;;;;;;;5.55;2.42;;;;;;;13.45;82.35;100831.06;5001310;28;20781;-50
2022/09/15 01:00:28;;;;;;;2.67;1.23;;;;;;;13.44;82.50;100832.25;5011442;28;20492;-45
2022/09/15 01:02:56;;;;;;;4.65;1.38;;;;;;;13.44;82.43;100829.47;5014752;28;20057;-49
2022/09/15 01:05:29;;;;;;;4.80;1.63;;;;;;;13.45;82.60;100828.28;5011557;28;20045;-51
2022/09/15 01:08:03;;;;;;;5.63;1.85;;;;;;;13.42;82.55;100826.25;5009652;28;20112;-45
2022/09/15 01:10:36;;;;;;;1.55;1.40;;;;;;;13.40;82.90;100828.56;5013196;28;20049;-49
2022/09/15 01:13:09;;;;;;;1.60;1.10;;;;;;;13.38;82.87;100828.94;5014000;28;20510;-44
2022/09/15 01:15:51;;;;;;;3.45;1.63;;;;;;;13.39;82.99;100835.31;5009128;28;20657;-45
2022/09/15 01:18:43;;;;;;;1.98;1.42;;;;;;;13.39;83.10;100824.19;5011025;28;20045;-45
2022/09/15 01:21:19;;;;;;;1.67;1.10;;;;;;;13.36;82.98;100830.47;5009417;28;20076;-48
2022/09/15 01:24:13;;;;;;;3.38;1.42;;;;;;;13.34;83.11;100830.06;5007183;28;20051;-43
2022/09/15 01:26:48;;;;;;;2.40;1.17;;;;;;;13.33;82.95;100839.53;5009510;28;20045;-46
2022/09/15 01:29:43;;;;;;;4.72;1.73;;;;;;;13.31;83.02;100831.56;5008494;28;20142;-46
2022/09/15 01:35:16;;;;;;;3.28;1.60;;;;;;;13.33;83.17;100839.53;5007552;28;20033;-44
2022/09/15 01:37:49;;;;;;;2.22;1.02;;;;;;;13.32;83.10;100829.56;5018225;28;20042;-44
2022/09/15 01:40:18;;;;;;;4.38;1.92;;;;;;;13.31;83.29;100844.66;5001421;28;20080;-46
2022/09/15 01:42:48;;;;;;;5.53;1.00;;;;;;;13.32;83.14;100843.47;5018402;28;20045;-44
2022/09/15 01:45:21;;;;;;;3.08;1.30;;;;;;;13.30;83.08;100840.25;5009715;28;20050;-48
2022/09/15 01:47:51;;;;;;;;;;;;;;;13.30;83.26;100849.41;5017769;28;20148;-44
2022/09/15 01:50:26;;;;;;;3.45;1.00;;;;;;;13.27;82.97;100847.34;5013318;28;19929;-50
2022/09/15 01:52:58;;;;;;;1.48;1.38;;;;;;;13.29;83.14;100845.00;5024656;28;20042;-44
2022/09/15 01:55:29;;;;;;;;;;;;;;;13.28;83.39;100843.41;5027643;28;20042;-49
2022/09/15 01:57:56;;;;;;;3.92;1.00;;;;;;;13.25;82.99;100838.56;5015406;28;19921;-45
2022/09/15 02:00:24;;;;;;;3.42;0.95;;;;;;;13.23;83.22;100835.34;5010062;28;20552;-45
2022/09/15 02:02:59;;;;;;;1.27;0.85;;;;;;;13.21;83.19;100837.66;5006499;28;20104;-45
2022/09/15 02:06:00;;;;;;;4.82;1.02;;;;;;;13.21;83.35;100842.44;5028627;28;20124;-48
2022/09/15 02:08:51;;;;;;;3.88;1.10;;;;;;;13.22;83.48;100832.91;5026466;28;20046;-44
2022/09/15 02:11:20;;;;;;;3.38;1.13;;;;;;;13.20;83.30;100843.59;5023388;28;20037;-45
2022/09/15 02:13:53;;;;;;;4.80;1.00;;;;;;;13.19;83.62;100836.41;5014910;28;20052;-43
2022/09/15 02:16:23;;;;;;;3.83;1.00;;;;;;;13.16;83.57;100837.94;5017030;28;20160;-43
2022/09/15 02:18:59;;;;;;;3.25;1.13;;;;;;;13.15;83.65;100833.56;5010796;28;20045;-47
2022/09/15 02:21:39;;;;;;;5.13;0.88;;;;;;;13.14;83.76;100836.69;5009966;28;20495;-44
2022/09/15 02:24:18;;;;;;;2.78;1.00;;;;;;;13.12;83.78;100842.63;5011045;28;20041;-47
2022/09/15 02:26:47;;;;;;;2.33;0.95;;;;;;;13.11;83.76;100843.78;5020017;28;20060;-45
2022/09/15 02:29:18;;;;;;;2.60;0.73;;;;;;;13.11;84.04;100837.41;5014363;28;20116;-43
2022/09/15 02:31:47;;;;;;;2.05;0.82;;;;;;;13.07;84.06;100840.13;5018767;28;20518;-44
2022/09/15 02:34:23;;;;;;;3.80;0.93;;;;;;;13.06;83.97;100843.22;5016043;28;20052;-45
2022/09/15 02:36:52;;;;;;;3.45;1.15;;;;;;;13.07;84.19;100853.22;5009735;28;20037;-44
2022/09/15 02:39:22;;;;;;;1.35;1.08;;;;;;;13.07;84.05;100850.44;5024976;28;20049;-44
2022/09/15 02:41:49;;;;;;;2.38;1.15;;;;;;;13.04;84.14;100851.91;5027882;28;20048;-45
2022/09/15 02:44:15;;;;;;;2.28;0.95;;;;;;;13.04;84.19;100848.34;5014971;28;20431;-44
2022/09/15 02:46:42;;;;;;;2.80;1.08;;;;;;;13.02;84.09;100836.78;5015385;28;20041;-45
2022/09/15 02:49:09;;;;;;;3.42;1.17;;;;;;;12.99;84.16;100846.63;5015712;28;20479;-44
2022/09/15 02:51:36;;;;;;;3.47;0.80;;;;;;;12.98;84.24;100845.00;5007984;28;20104;-44
2022/09/15 02:54:02;;;;;;;2.60;1.20;;;;;;;12.96;84.39;100843.75;5015532;28;20313;-44
2022/09/15 02:56:29;;;;;;;5.82;1.10;;;;;;;12.96;84.40;100847.34;5020550;28;20049;-50
2022/09/15 02:58:55;;;;;;;2.65;1.10;;;;;;;12.94;84.57;100843.31;5013837;28;20484;-46
2022/09/15 03:01:31;;;;;;;2.40;1.20;;;;;;;12.92;84.47;100849.22;5066901;22;20061;-44
2022/09/15 03:03:58;;;;;;;2.88;1.10;;;;;;;12.88;84.53;100847.53;5010587;28;20049;-44
2022/09/15 03:06:28;;;;;;;2.72;0.98;;;;;;;12.86;84.51;100856.22;5019158;28;20040;-44
2022/09/15 03:08:57;;;;;;;3.25;1.15;;;;;;;12.83;84.47;100848.59;5018658;28;20115;-45
2022/09/15 03:11:26;;;;;;;8.32;2.22;;;;;;;12.76;84.58;100843.66;5021969;28;20476;-45
2022/09/15 03:13:58;;;;;;;5.38;1.23;;;;;;;12.73;84.62;100849.91;5028472;28;20042;-44
2022/09/15 03:16:27;;;;;;;1.98;0.80;;;;;;;12.69;84.71;100846.25;5036053;28;20083;-51
2022/09/15 03:18:55;;;;;;;9.35;2.42;;;;;;;12.62;84.58;100842.50;5029795;28;20044;-44
2022/09/15 03:21:22;;;;;;;4.88;0.88;;;;;;;12.54;84.82;100841.50;5027334;28;20148;-44
2022/09/15 03:23:48;;;;;;;5.72;1.30;;;;;;;12.51;84.83;100844.97;5028559;28;20045;-44
2022/09/15 03:26:16;;;;;;;1.83;0.88;;;;;;;12.48;84.80;100831.00;5028753;28;20144;-49
2022/09/15 03:28:42;;;;;;;3.22;1.13;;;;;;;12.45;84.79;100837.25;5028591;28;20502;-45
2022/09/15 03:31:09;;;;;;;7.68;2.00;;;;;;;12.40;84.84;100841.09;5024709;28;20049;-44
2022/09/15 03:33:36;;;;;;;7.13;2.83;;;;;;;12.33;84.95;100840.91;5037551;28;20048;-47
2022/09/15 03:36:04;;;;;;;2.63;1.42;;;;;;;12.28;85.18;100843.94;5032339;28;20843;-44
2022/09/15 03:38:30;;;;;;;3.45;0.85;;;;;;;12.26;85.15;100840.69;5028108;28;20388;-44
2022/09/15 03:41:03;;;;;;;3.15;1.00;;;;;;;12.21;85.28;100849.28;5028471;28;20056;-44
2022/09/15 03:43:31;;;;;;;3.33;1.15;;;;;;;12.18;85.31;100852.75;5027617;28;20056;-46
2022/09/15 03:45:57;;;;;;;2.67;1.13;;;;;;;12.15;85.45;100859.03;5028371;28;20057;-45
2022/09/15 03:48:26;;;;;;;5.00;0.88;;;;;;;12.12;85.48;100859.75;5023216;28;20060;-44
2022/09/15 03:50:53;;;;;;;2.38;1.13;;;;;;;12.10;85.43;100870.38;5031989;28;20505;-43
2022/09/15 03:53:20;;;;;;;4.20;0.95;;;;;;;12.08;85.43;100867.97;5031711;28;20044;-44
2022/09/15 03:55:48;;;;;;;5.80;1.10;;;;;;;12.06;85.56;100869.47;5039139;28;20073;-45
2022/09/15 03:58:16;;;;;;;2.78;0.70;;;;;;;12.01;85.45;100872.50;5028258;28;20045;-44
2022/09/15 04:00:44;;;;;;;5.00;1.00;;;;;;;12.00;85.56;100877.22;5031741;28;20157;-49
2022/09/15 04:03:12;;;;;;;8.27;1.17;;;;;;;11.99;85.75;100872.84;5029011;28;20045;-44
2022/09/15 04:05:38;;;;;;;4.20;0.90;;;;;;;11.96;85.82;100872.75;5024509;28;20056;-44
2022/09/15 04:08:05;;;;;;;2.97;0.85;;;;;;;11.94;85.88;100877.84;5029490;28;20046;-44
2022/09/15 04:10:32;;;;;;;3.03;1.25;;;;;;;11.93;85.93;100881.78;5018257;28;20045;-44
2022/09/15 04:12:59;;;;;;;3.13;0.77;;;;;;;11.90;85.99;100879.69;5030905;28;20103;-45
2022/09/15 04:15:25;;;;;;;2.80;0.88;;;;;;;11.87;86.18;100883.97;5031775;28;20041;-47
2022/09/15 04:17:52;;;;;;;3.00;0.60;;;;;;;11.86;86.06;100878.78;5023159;28;20075;-44
2022/09/15 04:20:20;;;;;;;4.35;0.90;;;;;;;11.84;86.19;100883.84;5031647;28;20084;-46
2022/09/15 04:22:47;;;;;;;3.05;0.88;;;;;;;11.86;86.20;100889.88;5029695;28;20034;-51
2022/09/15 04:25:13;;;;;;;1.65;0.65;;;;;;;11.86;86.06;100889.88;5044740;28;20099;-45
2022/09/15 04:27:40;;;;;;;2.65;0.52;;;;;;;11.85;86.01;100902.13;5032288;28;20095;-44
2022/09/15 04:30:07;;;;;;;4.03;0.60;;;;;;;11.83;86.12;100893.34;5031674;28;20505;-46
2022/09/15 04:32:34;;;;;;;2.88;0.90;;;;;;;11.83;86.13;100904.44;5029640;28;20064;-49
2022/09/15 04:35:02;;;;;;;2.95;1.27;;;;;;;11.82;86.27;100902.81;5014287;28;20045;-45
2022/09/15 04:37:30;;;;;;;3.97;0.88;;;;;;;11.80;86.25;100899.59;5027392;28;20042;-48
2022/09/15 04:39:57;;;;;;;3.22;1.00;;;;;;;11.76;86.27;100904.22;5031756;28;20045;-45
2022/09/15 04:42:24;;;;;;;4.13;0.90;;;;;;;11.72;86.33;100898.56;5034469;28;20128;-48
2022/09/15 04:44:51;;;;;;;2.88;0.85;;;;;;;11.72;86.49;100903.31;5031545;28;20044;-48
2022/09/15 04:47:18;;;;;;;3.95;1.05;;;;;;;11.70;86.61;100897.31;5029878;28;20049;-43
2022/09/15 04:49:45;;;;;;;3.28;0.90;;;;;;;11.69;86.56;100901.22;5031263;28;20045;-46
2022/09/15 04:52:12;;;;;;;1.15;0.68;;;;;;;11.67;86.78;100895.19;5027249;28;20564;-47
2022/09/15 04:54:38;;;;;;;2.10;0.80;;;;;;;11.68;86.94;100902.34;5034453;28;20060;-43
2022/09/15 04:57:05;;;;;;;1.52;0.90;;;;;;;11.66;86.87;100894.38;5031439;28;20057;-45
2022/09/15 04:59:32;;;;;;;5.90;0.93;;;;;;;11.66;87.00;100907.44;5034259;28;20980;-47
2022/09/15 05:01:59;;;;;;;3.50;0.65;;;;;;;11.65;87.06;100911.38;5029373;28;20061;-44
2022/09/15 05:04:25;;;;;;;3.83;1.10;;;;;;;11.63;87.04;100920.03;5023867;28;20054;-44
2022/09/15 05:06:52;;;;;;;4.82;1.17;;;;;;;11.61;87.04;100914.03;5027953;28;20096;-44
2022/09/15 05:09:19;;;;;;;6.47;0.90;;;;;;;11.61;87.09;100909.31;5030311;28;20037;-45
2022/09/15 05:11:46;;;;;;;4.60;1.08;;;;;;;11.59;87.20;100911.63;5030803;28;20045;-45
2022/09/15 05:14:12;;;;;;;1.58;1.00;;;;;;;11.56;87.25;100915.09;5030889;28;20723;-44
2022/09/15 05:16:39;;;;;;;4.15;0.95;;;;;;;11.54;87.43;100919.38;5024730;28;20387;-50
2022/09/15 05:19:06;;;;;;;3.13;0.98;;;;;;;11.54;87.40;100925.69;5029670;28;20083;-45
2022/09/15 05:21:32;;;;;;;3.13;0.82;;;;;;;11.55;87.36;100919.00;5030524;28;20483;-45
2022/09/15 05:23:59;;;;;;;1.88;0.80;;;;;;;11.55;87.39;100921.78;5030650;28;20053;-44
2022/09/15 05:26:28;;;;;;;4.03;1.40;;;;;;;11.52;87.53;100922.47;5030767;28;20046;-47
2022/09/15 05:28:55;;;;;;;7.47;1.13;;;;;;;11.50;87.59;100921.19;5030855;28;20044;-42
2022/09/15 05:31:29;;;;;;;5.78;0.90;;;;;;;11.48;87.64;100927.09;5029431;28;20083;-42
2022/09/15 05:33:59;;;;;;;2.83;0.65;;;;;;;11.50;87.66;100927.56;5030592;28;20095;-43
2022/09/15 05:36:26;;;;;;;2.90;1.52;;;;;;;11.50;87.98;100922.00;5027952;28;20049;-41
2022/09/15 05:38:57;;;;;;;3.75;0.82;;;;;;;11.53;87.93;100923.28;5026481;28;20087;-41
2022/09/15 05:41:25;;;;;;;7.25;1.33;;;;;;;11.54;87.86;100924.91;5012943;28;20127;-44
2022/09/15 05:43:53;;;;;;;1.73;0.63;;;;;;;11.55;87.89;100923.75;5030526;28;20072;-44
2022/09/15 05:46:21;;;;;;;5.55;1.02;;;;;;;11.58;87.71;100932.19;5030087;28;20038;-48
2022/09/15 05:48:48;;;;;;;3.25;1.35;;;;;;;11.59;87.86;100922.72;5032965;28;20564;-43
2022/09/15 05:51:14;;;;;;;5.38;0.93;;;;;;;11.61;87.97;100928.72;5031657;28;20052;-44
2022/09/15 05:53:41;;;;;;;5.13;1.08;;;;;;;11.65;87.64;100916.94;5016447;28;20042;-42
2022/09/15 05:56:13;;;;;;;7.15;2.83;;;;;;;11.65;87.65;100925.25;5029920;28;20056;-43
2022/09/15 05:58:41;;;;;;;8.25;1.25;;;;;;;11.65;87.73;100930.81;5009144;28;20050;-50
2022/09/15 06:01:12;;;;;;;2.63;1.30;;;;;;;11.66;87.68;100933.22;5019692;28;20521;-42
2022/09/15 06:03:40;;;;;;;4.85;1.75;;;;;;;11.68;87.88;100927.31;5026881;28;20049;-45
2022/09/15 06:06:07;;;;;;;4.80;1.05;;;;;;;11.69;87.65;100928.97;5030607;28;20057;-46
2022/09/15 06:08:36;;;;;;;16.33;2.25;;;;;;;11.70;87.77;100928.63;5032199;28;20041;-42
2022/09/15 06:11:06;;;;;;;3.30;1.13;;;;;;;11.71;87.69;100941.31;5029875;28;20045;-41
2022/09/15 06:13:32;;;;;;;5.18;2.25;;;;;;;11.75;87.86;100947.00;5029522;28;20320;-43
2022/09/15 06:16:01;;;;;;;2.33;0.60;;;;;;;11.78;87.73;100946.31;5024514;28;20507;-42
2022/09/15 06:18:28;;;;;;;6.90;1.45;;;;;;;11.80;87.75;100949.53;5024802;28;20041;-43
2022/09/15 06:20:55;;;;;;;4.97;1.08;;;;;;;11.82;87.63;100947.22;5021770;28;20133;-41
2022/09/15 06:23:21;;;;;;;5.15;1.23;;;;;;;11.84;87.63;100951.25;5029200;28;20446;-47
2022/09/15 06:25:48;;;;;;;5.10;0.90;;;;;;;11.85;87.65;100952.06;5026586;28;20046;-47
2022/09/15 06:28:15;;;;;;;4.32;1.75;;;;;;;11.84;87.39;100942.13;5028954;28;20049;-43
2022/09/15 06:30:47;;;;;;;5.88;1.30;;;;;;;11.87;87.60;100949.75;5026266;28;20380;-45
2022/09/15 06:33:16;;;;;;;3.17;0.93;;;;;;;11.89;87.41;100952.97;5029555;28;20073;-42
2022/09/15 06:35:42;;;;;;;6.10;1.33;;;;;;;11.93;87.41;100962.22;5026148;28;20045;-44
2022/09/15 06:38:10;;;;;;;7.78;1.55;;;;;;;11.95;87.20;100966.28;5028243;28;20103;-47
2022/09/15 06:40:36;;;;;;;3.85;1.00;;;;;;;11.98;87.11;100962.81;5038489;28;20044;-44
2022/09/15 06:43:03;;;;;;;2.58;0.65;;;;;;;12.01;87.13;100970.44;5008811;28;20053;-43
2022/09/15 06:45:30;;;;;;;6.68;1.00;;;;;;;12.04;87.02;100971.69;5028397;28;20524;-44
2022/09/15 06:47:56;;;;;;;8.07;1.52;;;;;;;12.07;87.21;100971.00;5026062;28;20045;-42
2022/09/15 06:50:43;;;;;;;8.05;1.30;;;;;;;12.11;87.02;100967.16;5022932;28;20121;-47
2022/09/15 06:53:10;;;;;;;5.32;1.15;;;;;;;12.13;87.04;100970.41;5028982;28;20375;-44
2022/09/15 06:55:37;;;;;;;6.70;1.20;;;;;;;12.16;87.17;100968.88;5028584;28;20060;-47
2022/09/15 06:58:03;;;;;;;4.10;2.33;;;;;;;12.20;87.02;100975.38;5039952;28;20053;-49
2022/09/15 07:00:30;;;;;;;3.40;1.05;;;;;;;12.23;86.75;100969.13;5029124;28;20045;-43
2022/09/15 07:02:57;;;;;;;10.88;2.47;;;;;;;12.26;86.85;100976.72;5028585;28;20095;-43
2022/09/15 07:05:24;;;;;;;7.18;1.88;;;;;;;12.29;87.06;100978.81;5006807;28;20042;-44
2022/09/15 07:07:51;;;;;;;5.22;1.13;;;;;;;12.32;86.92;100980.88;5023750;28;20045;-43
2022/09/15 07:10:18;;;;;;;3.20;0.88;;;;;;;12.34;86.92;100981.31;5028694;28;20631;-43
2022/09/15 07:12:45;;;;;;;7.65;1.73;;;;;;;12.38;86.81;100981.44;5028111;28;20049;-44
2022/09/15 07:15:12;;;;;;;5.50;1.65;;;;;;;12.40;86.70;100984.66;5040067;28;20033;-44
2022/09/15 07:17:38;;;;;;;3.00;1.10;;;;;;;12.43;86.70;100989.53;5019821;28;20059;-43
2022/09/15 07:20:05;;;;;;;6.00;1.00;;;;;;;12.46;86.68;100977.72;5018182;28;20095;-42
2022/09/15 07:22:32;;;;;;;5.03;1.02;;;;;;;12.48;86.42;100981.75;5020497;28;20280;-44
2022/09/15 07:24:58;;;;;;;5.80;1.08;;;;;;;12.50;86.39;100982.22;5020927;28;20053;-43
2022/09/15 07:27:30;;;;;;;4.03;0.82;;;;;;;12.55;86.35;100984.72;5028148;28;20042;-44
2022/09/15 07:29:57;;;;;;;4.97;1.40;;;;;;;12.63;86.25;100978.22;5004808;28;20411;-42
2022/09/15 07:32:24;;;;;;;5.60;1.30;;;;;;;12.72;86.42;100987.22;5023889;28;20041;-44
2022/09/15 07:34:51;;;;;;;7.50;1.33;;;;;;;12.81;86.33;100985.09;5032397;28;20033;-45
2022/09/15 07:37:23;;;;;;;;;;;;;;;12.85;85.98;100990.75;5026365;28;20594;-47
2022/09/15 07:39:50;;;;;;;13.10;1.55;;;;;;;12.91;85.76;100997.69;5030443;28;19929;-44
2022/09/15 07:42:16;;;;;;;2.58;1.30;;;;;;;12.96;85.64;100993.81;5024353;28;20578;-48
2022/09/15 07:44:43;;;;;;;6.70;1.65;;;;;;;13.00;85.63;100991.97;5032494;28;20991;-46
2022/09/15 07:47:10;;;;;;;7.30;1.23;;;;;;;13.06;85.52;101002.47;5031464;28;20041;-43
2022/09/15 07:49:36;;;;;;;7.90;1.40;;;;;;;13.14;85.29;100997.94;5032003;28;20053;-47
2022/09/15 07:52:03;;;;;;;6.00;1.55;;;;;;;13.20;85.32;101002.06;5013105;28;20495;-43
2022/09/15 07:54:30;;;;;;;4.00;1.17;;;;;;;13.25;85.12;100999.84;5010683;28;20045;-50
2022/09/15 07:56:56;;;;;;;2.97;1.20;;;;;;;13.33;84.78;101003.59;5031876;28;20045;-44
2022/09/15 07:59:23;;;;;;;6.72;1.17;;;;;;;13.40;84.63;101009.34;5032696;28;20046;-47
2022/09/15 08:01:50;;;;;;;4.28;1.00;;;;;;;13.44;84.37;101010.25;5032105;28;20060;-44
2022/09/15 08:04:16;;;;;;;5.18;1.23;;;;;;;13.46;84.03;101002.34;5030731;28;20380;-44
2022/09/15 08:06:43;;;;;;;9.00;1.58;;;;;;;13.46;83.68;101021.03;5028530;28;20052;-44
2022/09/15 08:09:16;;;;;;;7.50;0.93;;;;;;;13.51;83.70;101024.34;5031634;28;20407;-45
2022/09/15 08:11:43;;;;;;;7.10;1.38;;;;;;;13.59;83.27;101019.75;5030922;28;20046;-44
2022/09/15 08:14:09;;;;;;;8.40;2.63;;;;;;;13.64;83.05;101020.31;5031981;28;20065;-44
2022/09/15 08:16:37;;;;;;;10.82;1.40;;;;;;;13.63;82.53;101018.72;5024350;28;20045;-46
2022/09/15 08:19:04;;;;;;;9.30;1.02;;;;;;;13.59;82.32;101017.78;5031008;28;20549;-43
2022/09/15 08:21:30;;;;;;;4.82;1.30;;;;;;;13.55;82.16;101016.91;5013065;28;20050;-43
2022/09/15 08:23:59;;;;;;;7.85;1.38;;;;;;;13.51;81.93;101034.66;5029425;28;20046;-44
2022/09/15 08:26:27;;;;;;;8.07;1.52;;;;;;;13.45;82.14;101028.53;5032003;28;20049;-43
2022/09/15 08:28:54;;;;;;;7.70;1.50;;;;;;;13.50;82.41;101030.28;5031820;28;20553;-44
2022/09/15 08:31:22;;;;;;;5.50;1.95;;;;;;;13.69;82.35;101028.38;5031886;28;20099;-43
2022/09/15 08:33:51;;;;;;;6.43;2.08;;;;;;;13.90;81.87;101028.91;5009168;28;20061;-47
2022/09/15 08:36:21;;;;;;;7.25;2.00;;;;;;;14.12;81.64;101037.78;5029072;28;20061;-43
2022/09/15 08:38:48;;;;;;;6.65;1.60;;;;;;;14.32;81.25;101039.50;5033867;28;20045;-47
2022/09/15 08:41:27;;;;;;;11.18;2.78;;;;;;;14.47;80.63;101044.19;5033920;28;20128;-45
2022/09/15 08:44:09;;;;;;;8.95;1.60;;;;;;;14.60;80.37;101042.91;5032163;28;20050;-44
2022/09/15 08:46:42;;;;;;;9.23;1.25;;;;;;;14.70;79.75;101052.66;5031795;28;20545;-45
2022/09/15 08:49:20;;;;;;;10.73;1.73;;;;;;;14.77;79.05;101059.19;5023824;28;20050;-43
2022/09/15 08:52:15;;;;;;;7.30;1.58;;;;;;;14.81;78.45;101057.28;5021793;28;20111;-45
2022/09/15 08:54:42;;;;;;;3.15;1.52;;;;;;;14.83;77.81;101060.50;5031313;28;20411;-44
2022/09/15 08:57:17;;;;;;;7.35;1.60;;;;;;;14.87;77.35;101066.97;5033977;28;20175;-43
2022/09/15 08:59:44;;;;;;;6.38;1.58;;;;;;;14.87;76.75;101064.19;5019218;28;20106;-46
2022/09/15 09:02:11;;;;;;;5.80;2.05;;;;;;;14.88;76.18;101068.56;5030964;28;20053;-43
2022/09/15 09:05:21;;;;;;;6.78;1.73;;;;;;;14.88;75.95;101065.00;5029733;28;20172;-44
2022/09/15 09:07:58;;;;;;;4.57;0.90;;;;;;;14.87;75.36;101074.53;4981271;28;20045;-44
2022/09/15 09:10:31;;;;;;;3.72;0.80;;;;;;;14.96;75.03;101072.31;5030470;28;20049;-44
2022/09/15 09:13:04;;;;;;;4.55;1.02;;;;;;;15.08;74.60;101072.19;5034555;28;20053;-44
2022/09/15 09:15:42;;;;;;;5.00;0.93;;;;;;;15.30;74.19;101065.84;5025524;28;20050;-44
2022/09/15 09:18:51;;;;;;;3.92;0.90;;;;;;;15.50;73.80;101075.84;5030281;28;20049;-44
2022/09/15 09:21:30;;;;;;;5.90;0.70;;;;;;;15.68;73.06;101074.16;5023390;28;20491;-44
2022/09/15 09:24:05;;;;;;;3.45;0.80;;;;;;;15.80;72.19;101068.41;5031084;28;20411;-45
2022/09/15 09:26:35;;;;;;;7.13;1.10;;;;;;;15.94;71.90;101073.41;5002979;28;20052;-44
2022/09/15 09:29:19;;;;;;;3.28;1.52;;;;;;;16.14;71.41;101071.34;5011216;28;20049;-45
2022/09/15 09:31:51;;;;;;;4.90;0.82;;;;;;;16.17;70.73;101076.19;5013361;28;20044;-44
2022/09/15 09:34:49;;;;;;;7.13;1.20;;;;;;;16.25;70.15;101073.16;5030735;28;20057;-43
2022/09/15 09:37:16;;;;;;;5.38;1.13;;;;;;;16.21;69.52;101072.25;5030414;28;20104;-45
2022/09/15 09:39:42;;;;;;;3.55;0.90;;;;;;;16.10;68.83;101078.84;5030347;28;20406;-45
2022/09/15 09:42:14;;;;;;;7.18;2.25;;;;;;;16.02;68.89;101075.13;5002252;28;20053;-43
2022/09/15 09:44:41;;;;;;;;;;;;;;;16.00;69.15;101074.72;5026373;28;20118;-44
2022/09/15 09:47:08;;;;;;;8.15;2.13;;;;;;;16.09;68.84;101083.66;5035467;28;19924;-43
2022/09/15 09:49:41;;;;;;;7.13;2.13;;;;;;;16.38;68.56;101082.13;5034485;28;20171;-44
2022/09/15 09:52:08;;;;;;;7.43;1.80;;;;;;;16.81;66.78;101083.56;5022235;28;20041;-44
2022/09/15 09:54:34;;;;;;;11.10;2.13;;;;;;;16.92;65.97;101084.47;5027865;28;20053;-47
2022/09/15 09:57:27;;;;;;;8.60;2.22;;;;;;;16.75;65.86;101080.28;5029764;28;20048;-42
2022/09/15 09:59:54;;;;;;;3.78;1.13;;;;;;;16.68;65.47;101080.16;5028109;28;20049;-44
2022/09/15 10:02:24;;;;;;;6.55;1.42;;;;;;;17.37;64.08;101083.44;5029807;28;20061;-48
2022/09/15 10:05:14;;;;;;;5.30;2.67;;;;;;;18.06;62.75;101078.94;5028665;28;20059;-42
2022/09/15 10:07:45;;;;;;;3.15;0.73;;;;;;;18.15;61.80;101085.84;5020824;28;20052;-44
2022/09/15 10:10:23;;;;;;;4.95;1.00;;;;;;;17.70;61.73;101082.63;5029174;28;20095;-43
2022/09/15 10:12:55;;;;;;;3.55;0.90;;;;;;;17.38;62.23;101077.47;5027907;28;20049;-43
2022/09/15 10:15:32;;;;;;;5.80;1.33;;;;;;;17.22;62.38;101088.06;5007084;28;20053;-44
2022/09/15 10:18:00;;;;;;;4.43;0.63;;;;;;;17.20;61.98;101078.44;5021853;28;20092;-44
2022/09/15 10:20:32;;;;;;;2.33;0.90;;;;;;;17.25;62.00;101084.50;5027675;28;20053;-44
2022/09/15 10:23:27;;;;;;;4.00;1.00;;;;;;;17.34;62.02;101076.59;5019605;28;20046;-46
2022/09/15 10:26:15;;;;;;;7.75;1.13;;;;;;;17.34;61.24;101073.81;5020460;28;20049;-44
2022/09/15 10:29:02;;;;;;;2.28;0.70;;;;;;;17.48;60.84;101081.56;5027633;28;20069;-45
2022/09/15 10:31:31;;;;;;;8.57;0.80;;;;;;;17.40;60.38;101080.69;5018343;28;20128;-46
2022/09/15 10:34:29;;;;;;;7.10;1.73;;;;;;;17.43;60.58;101079.91;5028736;28;20045;-44
2022/09/15 10:37:13;;;;;;;4.63;1.05;;;;;;;17.63;59.92;101088.97;5022185;28;20399;-47
2022/09/15 10:39:52;;;;;;;6.38;1.05;;;;;;;17.40;59.43;101088.25;5028433;28;20495;-45
2022/09/15 10:42:34;;;;;;;7.50;1.30;;;;;;;17.07;59.42;101091.09;5029429;28;20049;-45
2022/09/15 10:45:08;;;;;;;5.43;0.90;;;;;;;16.87;60.12;101087.63;5025433;28;20060;-47
2022/09/15 10:48:02;;;;;;;6.10;0.93;;;;;;;16.75;60.37;101085.06;5025717;28;20049;-43
2022/09/15 10:50:43;;;;;;;6.65;1.70;;;;;;;16.66;61.05;101090.94;5018230;28;20041;-47
2022/09/15 10:53:55;;;;;;;3.97;1.53;;;;;;;16.67;61.27;101086.16;5027568;28;20545;-46
2022/09/15 10:56:35;;;;;;;2.90;0.80;;;;;;;16.66;61.46;101084.53;5001758;28;20830;-45
2022/09/15 10:59:32;;;;;;;7.90;1.45;;;;;;;17.10;60.54;101091.13;5011929;28;20060;-43
2022/09/15 11:02:22;;;;;;;5.47;1.13;;;;;;;17.52;59.79;101088.81;5010436;28;20496;-46
2022/09/15 11:04:52;;;;;;;5.53;1.60;;;;;;;17.68;59.71;101088.63;5028545;28;20048;-43
2022/09/15 11:07:59;;;;;;;7.75;1.35;;;;;;;17.57;59.33;101094.09;5022203;28;20057;-44
2022/09/15 11:10:28;;;;;;;3.88;0.93;;;;;;;17.48;59.76;101087.97;4981777;28;20072;-43
2022/09/15 11:13:03;;;;;;;1.48;0.73;;;;;;;17.41;59.65;101106.69;5027622;28;20033;-44
2022/09/15 11:15:46;;;;;;;3.70;1.70;;;;;;;17.36;59.88;101102.25;5010394;28;20503;-43
2022/09/15 11:18:16;;;;;;;6.25;1.30;;;;;;;17.23;59.55;101098.09;5028249;28;20439;-44
2022/09/15 11:21:00;;;;;;;8.20;1.45;;;;;;;17.07;59.95;101094.69;5008254;28;20060;-49
2022/09/15 11:23:38;;;;;;;5.93;3.03;;;;;;;16.91;60.06;101099.66;5009553;28;20057;-45
2022/09/15 11:26:35;;;;;;;5.43;1.40;;;;;;;16.78;60.12;101101.09;5016817;28;20053;-45
2022/09/15 11:29:13;;;;;;;5.78;1.38;;;;;;;16.65;60.03;101113.69;5027462;28;20037;-44
2022/09/15 11:31:47;;;;;;;5.85;1.10;;;;;;;16.53;59.85;101113.88;5027000;28;20045;-47
2022/09/15 11:34:37;;;;;;;7.55;1.73;;;;;;;16.40;59.99;101114.09;5027583;28;20046;-47
2022/09/15 11:37:16;;;;;;;8.43;2.47;;;;;;;16.28;60.10;101117.06;5027689;28;20037;-43
2022/09/15 11:39:54;;;;;;;3.38;1.00;;;;;;;16.17;60.16;101116.13;5010480;28;20033;-42
2022/09/15 11:43:02;;;;;;;3.50;0.82;;;;;;;16.15;60.60;101115.66;5028149;28;20052;-48
2022/09/15 11:45:37;;;;;;;3.60;0.65;;;;;;;16.20;60.69;101109.75;4957164;28;20047;-44
2022/09/15 11:48:12;;;;;;;5.75;1.05;;;;;;;16.26;60.74;101105.47;5019221;28;20507;-44
2022/09/15 11:50:44;;;;;;;4.28;1.27;;;;;;;16.45;60.83;101110.16;5025565;28;20553;-46